sensor_id;sensor_type;location;lat;lon;timestamp;pressure;altitude;pressure_sealevel;temperature;humidity
73600;BME280;61877;48.246;9.220;2022-10-16T00:01:16;94104.75;;;12.31;92.11
73600;BME280;61877;48.246;9.220;2022-10-16T00:03:43;94104.56;;;12.24;92.11
73600;BME280;61877;48.246;9.220;2022-10-16T00:06:10;94099.41;;;12.15;92.29
73600;BME280;61877;48.246;9.220;2022-10-16T00:08:38;94108.06;;;12.09;92.31
73600;BME280;61877;48.246;9.220;2022-10-16T00:11:05;94107.53;;;12.03;92.10
73600;BME280;61877;48.246;9.220;2022-10-16T00:13:33;94105.44;;;11.97;92.20
73600;BME280;61877;48.246;9.220;2022-10-16T00:16:00;94112.81;;;12.00;92.57
73600;BME280;61877;48.246;9.220;2022-10-16T00:18:26;94117.31;;;11.96;92.59
73600;BME280;61877;48.246;9.220;2022-10-16T00:20:52;94123.13;;;11.98;93.03
73600;BME280;61877;48.246;9.220;2022-10-16T00:23:18;94124.69;;;11.99;92.92
73600;BME280;61877;48.246;9.220;2022-10-16T00:25:44;94126.25;;;12.00;92.80
73600;BME280;61877;48.246;9.220;2022-10-16T00:28:09;94122.78;;;11.99;92.64
73600;BME280;61877;48.246;9.220;2022-10-16T00:30:39;94115.50;;;12.00;92.62
73600;BME280;61877;48.246;9.220;2022-10-16T00:33:04;94116.09;;;11.93;92.49
73600;BME280;61877;48.246;9.220;2022-10-16T00:35:32;94118.09;;;11.96;92.54
73600;BME280;61877;48.246;9.220;2022-10-16T00:37:57;94123.38;;;11.93;92.19
73600;BME280;61877;48.246;9.220;2022-10-16T00:40:23;94129.53;;;11.93;92.35
73600;BME280;61877;48.246;9.220;2022-10-16T00:42:48;94130.16;;;12.02;92.50
73600;BME280;61877;48.246;9.220;2022-10-16T00:45:14;94126.28;;;12.15;92.38
73600;BME280;61877;48.246;9.220;2022-10-16T00:47:45;94127.75;;;12.13;92.40
73600;BME280;61877;48.246;9.220;2022-10-16T00:50:17;94118.63;;;12.17;92.35
73600;BME280;61877;48.246;9.220;2022-10-16T00:52:46;94122.81;;;12.15;92.01
73600;BME280;61877;48.246;9.220;2022-10-16T00:55:12;94122.38;;;12.13;92.20
73600;BME280;61877;48.246;9.220;2022-10-16T00:57:38;94120.03;;;12.11;92.44
73600;BME280;61877;48.246;9.220;2022-10-16T01:00:07;94117.69;;;12.10;92.48
73600;BME280;61877;48.246;9.220;2022-10-16T01:02:33;94115.34;;;12.08;92.31
73600;BME280;61877;48.246;9.220;2022-10-16T01:05:00;94120.38;;;12.10;92.41
73600;BME280;61877;48.246;9.220;2022-10-16T01:07:34;94111.50;;;12.09;92.30
73600;BME280;61877;48.246;9.220;2022-10-16T01:10:13;94127.56;;;12.06;92.05
73600;BME280;61877;48.246;9.220;2022-10-16T01:12:46;94120.63;;;12.05;91.94
73600;BME280;61877;48.246;9.220;2022-10-16T01:15:18;94122.28;;;12.09;91.95
73600;BME280;61877;48.246;9.220;2022-10-16T01:17:52;94130.88;;;12.15;91.93
73600;BME280;61877;48.246;9.220;2022-10-16T01:20:26;94131.81;;;12.07;92.04
73600;BME280;61877;48.246;9.220;2022-10-16T01:23:07;94131.00;;;11.91;93.22
73600;BME280;61877;48.246;9.220;2022-10-16T01:25:45;94129.19;;;11.95;93.34
73600;BME280;61877;48.246;9.220;2022-10-16T01:28:17;94129.72;;;12.00;93.39
73600;BME280;61877;48.246;9.220;2022-10-16T01:30:45;94129.22;;;12.10;92.71
73600;BME280;61877;48.246;9.220;2022-10-16T01:33:16;94132.69;;;12.11;92.48
73600;BME280;61877;48.246;9.220;2022-10-16T01:35:45;94137.44;;;12.02;92.59
73600;BME280;61877;48.246;9.220;2022-10-16T01:38:15;94129.63;;;11.97;93.35
73600;BME280;61877;48.246;9.220;2022-10-16T01:40:45;94132.78;;;11.99;93.23
73600;BME280;61877;48.246;9.220;2022-10-16T01:43:14;94145.16;;;12.03;92.94
73600;BME280;61877;48.246;9.220;2022-10-16T01:45:44;94144.38;;;12.03;93.02
73600;BME280;61877;48.246;9.220;2022-10-16T01:48:12;94142.13;;;12.05;93.01
73600;BME280;61877;48.246;9.220;2022-10-16T01:50:43;94140.34;;;12.09;92.83
73600;BME280;61877;48.246;9.220;2022-10-16T01:53:11;94139.19;;;12.10;92.91
73600;BME280;61877;48.246;9.220;2022-10-16T01:55:40;94136.94;;;12.12;92.75
73600;BME280;61877;48.246;9.220;2022-10-16T01:58:08;94130.63;;;12.20;92.35
73600;BME280;61877;48.246;9.220;2022-10-16T02:00:36;94131.22;;;12.29;91.76
73600;BME280;61877;48.246;9.220;2022-10-16T02:03:05;94130.19;;;12.33;91.80
73600;BME280;61877;48.246;9.220;2022-10-16T02:05:34;94124.28;;;12.28;91.86
73600;BME280;61877;48.246;9.220;2022-10-16T02:08:03;94133.66;;;12.34;91.64
73600;BME280;61877;48.246;9.220;2022-10-16T02:10:28;94138.69;;;12.35;91.72
73600;BME280;61877;48.246;9.220;2022-10-16T02:12:57;94149.78;;;12.34;91.99
73600;BME280;61877;48.246;9.220;2022-10-16T02:15:23;94146.50;;;12.25;92.21
73600;BME280;61877;48.246;9.220;2022-10-16T02:17:49;94153.25;;;12.19;92.54
73600;BME280;61877;48.246;9.220;2022-10-16T02:20:16;94145.44;;;12.14;92.58
73600;BME280;61877;48.246;9.220;2022-10-16T02:22:45;94137.28;;;12.10;92.82
73600;BME280;61877;48.246;9.220;2022-10-16T02:25:17;94148.81;;;12.11;92.84
73600;BME280;61877;48.246;9.220;2022-10-16T02:27:54;94144.47;;;12.06;92.72
73600;BME280;61877;48.246;9.220;2022-10-16T02:30:24;94151.78;;;12.21;92.34
73600;BME280;61877;48.246;9.220;2022-10-16T02:32:56;94145.00;;;12.27;91.72
73600;BME280;61877;48.246;9.220;2022-10-16T02:35:25;94159.50;;;12.23;91.66
73600;BME280;61877;48.246;9.220;2022-10-16T02:37:53;94152.47;;;12.34;91.38
73600;BME280;61877;48.246;9.220;2022-10-16T02:40:19;94155.88;;;12.31;91.50
73600;BME280;61877;48.246;9.220;2022-10-16T02:42:49;94155.63;;;12.20;92.46
73600;BME280;61877;48.246;9.220;2022-10-16T02:45:16;94141.72;;;12.18;92.41
73600;BME280;61877;48.246;9.220;2022-10-16T02:47:42;94145.53;;;12.17;92.45
73600;BME280;61877;48.246;9.220;2022-10-16T02:50:10;94138.94;;;12.15;91.98
73600;BME280;61877;48.246;9.220;2022-10-16T02:52:37;94138.84;;;12.11;92.11
73600;BME280;61877;48.246;9.220;2022-10-16T02:55:06;94143.69;;;12.06;92.15
73600;BME280;61877;48.246;9.220;2022-10-16T02:57:31;94143.59;;;12.02;92.23
73600;BME280;61877;48.246;9.220;2022-10-16T02:59:57;94139.25;;;11.98;91.88
73600;BME280;61877;48.246;9.220;2022-10-16T03:02:23;94138.41;;;11.94;92.24
73600;BME280;61877;48.246;9.220;2022-10-16T03:04:48;94137.94;;;11.92;92.44
73600;BME280;61877;48.246;9.220;2022-10-16T03:07:14;94140.97;;;11.90;92.14
73600;BME280;61877;48.246;9.220;2022-10-16T03:09:41;94135.50;;;11.87;92.91
73600;BME280;61877;48.246;9.220;2022-10-16T03:12:06;94136.97;;;11.84;93.26
73600;BME280;61877;48.246;9.220;2022-10-16T03:14:32;94149.41;;;11.89;92.98
73600;BME280;61877;48.246;9.220;2022-10-16T03:16:57;94143.22;;;11.88;92.82
73600;BME280;61877;48.246;9.220;2022-10-16T03:19:24;94145.47;;;11.86;92.69
73600;BME280;61877;48.246;9.220;2022-10-16T03:21:49;94136.88;;;11.81;93.11
73600;BME280;61877;48.246;9.220;2022-10-16T03:24:15;94143.13;;;11.85;93.02
73600;BME280;61877;48.246;9.220;2022-10-16T03:26:41;94156.13;;;11.83;92.62
73600;BME280;61877;48.246;9.220;2022-10-16T03:29:09;94154.47;;;11.78;93.15
73600;BME280;61877;48.246;9.220;2022-10-16T03:31:35;94160.06;;;12.01;92.57
73600;BME280;61877;48.246;9.220;2022-10-16T03:34:00;94161.91;;;11.97;92.03
73600;BME280;61877;48.246;9.220;2022-10-16T03:36:29;94150.50;;;11.88;92.20
73600;BME280;61877;48.246;9.220;2022-10-16T03:38:54;94151.97;;;11.85;92.52
73600;BME280;61877;48.246;9.220;2022-10-16T03:41:20;94157.16;;;11.78;92.38
73600;BME280;61877;48.246;9.220;2022-10-16T03:43:46;94157.50;;;11.77;92.40
73600;BME280;61877;48.246;9.220;2022-10-16T03:46:12;94150.47;;;11.72;92.53
73600;BME280;61877;48.246;9.220;2022-10-16T03:48:37;94154.16;;;11.67;92.77
73600;BME280;61877;48.246;9.220;2022-10-16T03:51:03;94154.38;;;11.75;92.67
73600;BME280;61877;48.246;9.220;2022-10-16T03:53:28;94149.00;;;11.75;92.60
73600;BME280;61877;48.246;9.220;2022-10-16T03:55:54;94148.78;;;11.67;92.98
73600;BME280;61877;48.246;9.220;2022-10-16T03:58:19;94160.88;;;11.74;92.94
73600;BME280;61877;48.246;9.220;2022-10-16T04:00:46;94160.78;;;11.70;92.72
73600;BME280;61877;48.246;9.220;2022-10-16T04:03:12;94159.88;;;11.66;92.85
73600;BME280;61877;48.246;9.220;2022-10-16T04:05:37;94165.81;;;11.59;92.93
73600;BME280;61877;48.246;9.220;2022-10-16T04:08:03;94164.16;;;11.55;92.93
73600;BME280;61877;48.246;9.220;2022-10-16T04:10:29;94175.47;;;11.48;92.75
73600;BME280;61877;48.246;9.220;2022-10-16T04:12:54;94170.59;;;11.38;93.07
73600;BME280;61877;48.246;9.220;2022-10-16T04:15:20;94167.69;;;11.31;93.54
73600;BME280;61877;48.246;9.220;2022-10-16T04:17:46;94166.13;;;11.30;93.61
73600;BME280;61877;48.246;9.220;2022-10-16T04:20:12;94172.03;;;11.36;92.60
73600;BME280;61877;48.246;9.220;2022-10-16T04:22:37;94176.53;;;11.32;92.69
73600;BME280;61877;48.246;9.220;2022-10-16T04:25:04;94176.19;;;11.33;93.46
73600;BME280;61877;48.246;9.220;2022-10-16T04:27:29;94174.94;;;11.31;93.34
73600;BME280;61877;48.246;9.220;2022-10-16T04:29:55;94169.25;;;11.32;93.36
73600;BME280;61877;48.246;9.220;2022-10-16T04:32:20;94172.38;;;11.34;93.02
73600;BME280;61877;48.246;9.220;2022-10-16T04:34:47;94171.50;;;11.30;92.89
73600;BME280;61877;48.246;9.220;2022-10-16T04:37:12;94165.44;;;11.33;93.25
73600;BME280;61877;48.246;9.220;2022-10-16T04:39:38;94157.72;;;11.32;93.03
73600;BME280;61877;48.246;9.220;2022-10-16T04:42:03;94155.38;;;11.30;93.18
73600;BME280;61877;48.246;9.220;2022-10-16T04:44:29;94163.31;;;11.39;92.68
73600;BME280;61877;48.246;9.220;2022-10-16T04:46:54;94163.50;;;11.46;92.83
73600;BME280;61877;48.246;9.220;2022-10-16T04:49:20;94164.06;;;11.39;92.81
73600;BME280;61877;48.246;9.220;2022-10-16T04:51:47;94165.66;;;11.40;93.20
73600;BME280;61877;48.246;9.220;2022-10-16T04:54:12;94172.25;;;11.31;93.63
73600;BME280;61877;48.246;9.220;2022-10-16T04:56:38;94169.34;;;11.36;93.95
73600;BME280;61877;48.246;9.220;2022-10-16T04:59:03;94169.69;;;11.34;93.76
73600;BME280;61877;48.246;9.220;2022-10-16T05:01:28;94167.34;;;11.33;93.90
73600;BME280;61877;48.246;9.220;2022-10-16T05:03:54;94173.16;;;11.35;93.89
73600;BME280;61877;48.246;9.220;2022-10-16T05:06:19;94177.75;;;11.34;94.07
73600;BME280;61877;48.246;9.220;2022-10-16T05:08:46;94176.63;;;11.35;93.98
73600;BME280;61877;48.246;9.220;2022-10-16T05:11:14;94183.22;;;11.38;93.84
73600;BME280;61877;48.246;9.220;2022-10-16T05:13:40;94181.56;;;11.33;93.90
73600;BME280;61877;48.246;9.220;2022-10-16T05:16:06;94188.81;;;11.33;93.90
73600;BME280;61877;48.246;9.220;2022-10-16T05:18:31;94186.38;;;11.28;94.00
73600;BME280;61877;48.246;9.220;2022-10-16T05:20:57;94180.56;;;11.26;94.26
73600;BME280;61877;48.246;9.220;2022-10-16T05:23:22;94190.31;;;11.30;93.80
73600;BME280;61877;48.246;9.220;2022-10-16T05:25:56;94194.09;;;11.29;93.76
73600;BME280;61877;48.246;9.220;2022-10-16T05:28:22;94199.47;;;11.29;93.67
73600;BME280;61877;48.246;9.220;2022-10-16T05:30:48;94202.16;;;11.29;93.91
73600;BME280;61877;48.246;9.220;2022-10-16T05:33:13;94204.06;;;11.29;93.54
73600;BME280;61877;48.246;9.220;2022-10-16T05:35:38;94202.03;;;11.26;93.97
73600;BME280;61877;48.246;9.220;2022-10-16T05:38:04;94206.88;;;11.32;93.61
73600;BME280;61877;48.246;9.220;2022-10-16T05:40:29;94205.28;;;11.31;93.74
73600;BME280;61877;48.246;9.220;2022-10-16T05:42:56;94197.69;;;11.33;93.60
73600;BME280;61877;48.246;9.220;2022-10-16T05:45:22;94204.94;;;11.33;93.47
73600;BME280;61877;48.246;9.220;2022-10-16T05:47:47;94196.53;;;11.34;92.96
73600;BME280;61877;48.246;9.220;2022-10-16T05:50:13;94204.72;;;11.38;93.19
73600;BME280;61877;48.246;9.220;2022-10-16T05:52:39;94195.91;;;11.37;92.89
73600;BME280;61877;48.246;9.220;2022-10-16T05:55:05;94203.25;;;11.40;93.10
73600;BME280;61877;48.246;9.220;2022-10-16T05:57:31;94203.38;;;11.44;93.07
73600;BME280;61877;48.246;9.220;2022-10-16T05:59:58;94204.25;;;11.48;92.81
73600;BME280;61877;48.246;9.220;2022-10-16T06:02:23;94214.75;;;11.53;92.61
73600;BME280;61877;48.246;9.220;2022-10-16T06:04:48;94215.66;;;11.57;92.69
73600;BME280;61877;48.246;9.220;2022-10-16T06:07:14;94216.88;;;11.59;92.77
73600;BME280;61877;48.246;9.220;2022-10-16T06:09:39;94215.56;;;11.65;92.86
73600;BME280;61877;48.246;9.220;2022-10-16T06:12:05;94229.84;;;11.69;92.84
73600;BME280;61877;48.246;9.220;2022-10-16T06:14:30;94223.03;;;11.72;92.45
73600;BME280;61877;48.246;9.220;2022-10-16T06:16:57;94228.06;;;11.74;92.67
73600;BME280;61877;48.246;9.220;2022-10-16T06:19:22;94222.97;;;11.84;92.22
73600;BME280;61877;48.246;9.220;2022-10-16T06:21:48;94227.25;;;11.85;92.63
73600;BME280;61877;48.246;9.220;2022-10-16T06:24:13;94212.53;;;11.95;92.24
73600;BME280;61877;48.246;9.220;2022-10-16T06:26:39;94221.91;;;12.01;91.89
73600;BME280;61877;48.246;9.220;2022-10-16T06:29:04;94232.41;;;12.06;91.10
73600;BME280;61877;48.246;9.220;2022-10-16T06:31:30;94240.69;;;12.13;90.93
73600;BME280;61877;48.246;9.220;2022-10-16T06:33:57;94247.94;;;12.24;91.13
73600;BME280;61877;48.246;9.220;2022-10-16T06:36:24;94249.09;;;12.39;90.56
73600;BME280;61877;48.246;9.220;2022-10-16T06:38:50;94260.22;;;12.53;90.33
73600;BME280;61877;48.246;9.220;2022-10-16T06:41:17;94253.03;;;12.57;89.80
73600;BME280;61877;48.246;9.220;2022-10-16T06:43:43;94257.50;;;12.37;90.89
73600;BME280;61877;48.246;9.220;2022-10-16T06:46:10;94246.47;;;12.27;91.82
73600;BME280;61877;48.246;9.220;2022-10-16T06:48:37;94244.63;;;12.31;91.71
73600;BME280;61877;48.246;9.220;2022-10-16T06:51:06;94237.81;;;12.49;91.30
73600;BME280;61877;48.246;9.220;2022-10-16T06:53:34;94245.84;;;12.61;90.82
73600;BME280;61877;48.246;9.220;2022-10-16T06:56:06;94249.75;;;12.79;90.25
73600;BME280;61877;48.246;9.220;2022-10-16T06:58:32;94255.16;;;12.94;89.67
73600;BME280;61877;48.246;9.220;2022-10-16T07:00:57;94264.88;;;12.99;89.77
73600;BME280;61877;48.246;9.220;2022-10-16T07:03:23;94269.25;;;13.19;89.25
73600;BME280;61877;48.246;9.220;2022-10-16T07:05:48;94280.44;;;13.37;89.07
73600;BME280;61877;48.246;9.220;2022-10-16T07:08:15;94277.72;;;13.52;88.19
73600;BME280;61877;48.246;9.220;2022-10-16T07:10:41;94274.75;;;13.73;87.25
73600;BME280;61877;48.246;9.220;2022-10-16T07:13:06;94281.22;;;13.87;86.01
73600;BME280;61877;48.246;9.220;2022-10-16T07:15:31;94281.38;;;13.94;86.21
73600;BME280;61877;48.246;9.220;2022-10-16T07:30:15;94297.63;;;13.98;87.22
73600;BME280;61877;48.246;9.220;2022-10-16T07:32:41;94308.22;;;14.06;86.95
73600;BME280;61877;48.246;9.220;2022-10-16T07:35:18;94315.94;;;14.08;87.28
73600;BME280;61877;48.246;9.220;2022-10-16T07:38:15;94320.06;;;14.21;87.00
73600;BME280;61877;48.246;9.220;2022-10-16T08:00:20;94335.09;;;14.76;87.46
73600;BME280;61877;48.246;9.220;2022-10-16T08:02:45;94339.75;;;14.75;86.78
73600;BME280;61877;48.246;9.220;2022-10-16T08:05:14;94341.81;;;15.04;86.13
73600;BME280;61877;48.246;9.220;2022-10-16T08:07:39;94354.09;;;15.21;85.12
73600;BME280;61877;48.246;9.220;2022-10-16T08:10:06;94351.38;;;15.40;84.98
73600;BME280;61877;48.246;9.220;2022-10-16T08:12:32;94353.56;;;15.57;83.74
73600;BME280;61877;48.246;9.220;2022-10-16T08:15:16;94351.13;;;15.71;83.08
73600;BME280;61877;48.246;9.220;2022-10-16T08:18:00;94354.84;;;15.63;82.36
73600;BME280;61877;48.246;9.220;2022-10-16T08:20:28;94347.69;;;15.74;81.39
73600;BME280;61877;48.246;9.220;2022-10-16T08:57:13;94387.50;;;16.52;77.91
73600;BME280;61877;48.246;9.220;2022-10-16T08:59:39;94390.06;;;16.67;76.93
73600;BME280;61877;48.246;9.220;2022-10-16T09:02:22;94409.03;;;16.67;76.71
73600;BME280;61877;48.246;9.220;2022-10-16T09:04:57;94399.94;;;16.53;76.55
73600;BME280;61877;48.246;9.220;2022-10-16T09:07:29;94398.81;;;16.87;76.93
73600;BME280;61877;48.246;9.220;2022-10-16T09:10:11;94402.13;;;17.07;76.52
73600;BME280;61877;48.246;9.220;2022-10-16T09:12:46;94397.34;;;17.30;75.72
73600;BME280;61877;48.246;9.220;2022-10-16T09:15:46;94398.28;;;17.41;75.21
73600;BME280;61877;48.246;9.220;2022-10-16T09:18:16;94395.16;;;17.39;74.48
73600;BME280;61877;48.246;9.220;2022-10-16T09:20:51;94403.66;;;17.37;74.32
73600;BME280;61877;48.246;9.220;2022-10-16T09:23:21;94408.88;;;17.53;75.11
73600;BME280;61877;48.246;9.220;2022-10-16T09:25:55;94400.03;;;17.63;73.08
73600;BME280;61877;48.246;9.220;2022-10-16T09:28:35;94393.31;;;17.90;73.19
73600;BME280;61877;48.246;9.220;2022-10-16T09:38:47;94401.06;;;17.88;73.19
73600;BME280;61877;48.246;9.220;2022-10-16T09:41:17;94412.19;;;18.23;72.20
73600;BME280;61877;48.246;9.220;2022-10-16T09:43:51;94414.16;;;18.26;73.04
73600;BME280;61877;48.246;9.220;2022-10-16T09:46:29;94414.31;;;18.44;71.66
73600;BME280;61877;48.246;9.220;2022-10-16T09:48:58;94420.59;;;18.55;70.71
73600;BME280;61877;48.246;9.220;2022-10-16T09:51:25;94415.59;;;18.67;69.96
73600;BME280;61877;48.246;9.220;2022-10-16T09:53:55;94421.34;;;18.52;70.54
73600;BME280;61877;48.246;9.220;2022-10-16T09:56:23;94417.38;;;18.39;71.47
73600;BME280;61877;48.246;9.220;2022-10-16T09:58:55;94420.44;;;18.37;71.37
73600;BME280;61877;48.246;9.220;2022-10-16T10:01:22;94417.03;;;18.47;71.63
73600;BME280;61877;48.246;9.220;2022-10-16T10:03:50;94418.88;;;18.36;72.03
73600;BME280;61877;48.246;9.220;2022-10-16T10:06:22;94420.19;;;18.02;72.59
73600;BME280;61877;48.246;9.220;2022-10-16T10:09:00;94419.88;;;18.14;72.47
73600;BME280;61877;48.246;9.220;2022-10-16T10:11:43;94423.28;;;18.00;72.04
73600;BME280;61877;48.246;9.220;2022-10-16T10:14:17;94419.72;;;17.93;72.21
73600;BME280;61877;48.246;9.220;2022-10-16T10:16:43;94413.53;;;17.96;73.23
73600;BME280;61877;48.246;9.220;2022-10-16T10:19:14;94420.53;;;17.97;72.61
73600;BME280;61877;48.246;9.220;2022-10-16T10:21:39;94421.81;;;18.10;72.01
73600;BME280;61877;48.246;9.220;2022-10-16T10:24:08;94429.13;;;18.06;71.61
73600;BME280;61877;48.246;9.220;2022-10-16T10:26:34;94418.97;;;17.96;71.46
73600;BME280;61877;48.246;9.220;2022-10-16T10:29:06;94418.59;;;18.01;71.88
73600;BME280;61877;48.246;9.220;2022-10-16T10:31:43;94420.97;;;18.06;72.62
73600;BME280;61877;48.246;9.220;2022-10-16T10:34:32;94424.09;;;18.08;71.58
73600;BME280;61877;48.246;9.220;2022-10-16T10:37:06;94426.16;;;18.22;71.98
73600;BME280;61877;48.246;9.220;2022-10-16T10:39:40;94429.84;;;18.43;69.90
73600;BME280;61877;48.246;9.220;2022-10-16T10:42:18;94425.50;;;18.39;68.79
73600;BME280;61877;48.246;9.220;2022-10-16T10:45:01;94419.44;;;18.59;69.46
73600;BME280;61877;48.246;9.220;2022-10-16T10:50:26;94418.69;;;19.41;67.74
73600;BME280;61877;48.246;9.220;2022-10-16T10:53:11;94414.09;;;19.73;66.15
73600;BME280;61877;48.246;9.220;2022-10-16T10:55:46;94413.75;;;20.63;64.80
73600;BME280;61877;48.246;9.220;2022-10-16T11:01:25;94404.47;;;23.00;55.41
73600;BME280;61877;48.246;9.220;2022-10-16T11:04:29;94404.69;;;23.16;52.81
73600;BME280;61877;48.246;9.220;2022-10-16T11:07:02;94399.88;;;22.53;56.35
73600;BME280;61877;48.246;9.220;2022-10-16T11:09:33;94402.72;;;23.50;55.02
73600;BME280;61877;48.246;9.220;2022-10-16T11:12:07;94406.56;;;23.83;52.62
73600;BME280;61877;48.246;9.220;2022-10-16T11:14:43;94402.72;;;24.80;49.79
73600;BME280;61877;48.246;9.220;2022-10-16T11:17:13;94409.44;;;25.57;47.37
73600;BME280;61877;48.246;9.220;2022-10-16T11:19:44;94409.19;;;25.52;47.80
73600;BME280;61877;48.246;9.220;2022-10-16T11:22:19;94409.19;;;24.66;49.76
73600;BME280;61877;48.246;9.220;2022-10-16T11:24:55;94396.94;;;25.36;48.00
73600;BME280;61877;48.246;9.220;2022-10-16T11:27:48;94393.97;;;26.18;46.27
73600;BME280;61877;48.246;9.220;2022-10-16T11:30:20;94391.72;;;25.62;46.17
73600;BME280;61877;48.246;9.220;2022-10-16T11:33:20;94388.38;;;27.31;44.16
73600;BME280;61877;48.246;9.220;2022-10-16T11:35:52;94386.31;;;27.47;41.35
73600;BME280;61877;48.246;9.220;2022-10-16T11:38:35;94389.19;;;27.56;41.40
73600;BME280;61877;48.246;9.220;2022-10-16T11:41:11;94384.25;;;26.78;42.31
73600;BME280;61877;48.246;9.220;2022-10-16T11:43:42;94385.34;;;27.54;42.72
73600;BME280;61877;48.246;9.220;2022-10-16T11:46:11;94386.97;;;28.05;40.92
73600;BME280;61877;48.246;9.220;2022-10-16T11:48:41;94388.94;;;27.38;42.97
73600;BME280;61877;48.246;9.220;2022-10-16T11:51:37;94384.19;;;27.39;42.10
73600;BME280;61877;48.246;9.220;2022-10-16T11:54:14;94386.41;;;27.44;42.81
73600;BME280;61877;48.246;9.220;2022-10-16T11:56:44;94388.81;;;28.58;40.11
73600;BME280;61877;48.246;9.220;2022-10-16T11:59:17;94388.81;;;28.58;39.81
73600;BME280;61877;48.246;9.220;2022-10-16T12:01:48;94381.72;;;29.60;38.36
73600;BME280;61877;48.246;9.220;2022-10-16T12:04:22;94380.25;;;29.25;39.20
73600;BME280;61877;48.246;9.220;2022-10-16T12:06:55;94376.66;;;27.80;40.83
73600;BME280;61877;48.246;9.220;2022-10-16T12:09:26;94382.91;;;27.27;42.87
73600;BME280;61877;48.246;9.220;2022-10-16T12:11:52;94379.88;;;28.54;40.01
73600;BME280;61877;48.246;9.220;2022-10-16T12:14:21;94374.75;;;28.65;40.25
73600;BME280;61877;48.246;9.220;2022-10-16T12:19:57;94374.00;;;31.13;35.17
73600;BME280;61877;48.246;9.220;2022-10-16T12:22:23;94365.22;;;31.51;34.14
73600;BME280;61877;48.246;9.220;2022-10-16T12:24:51;94373.56;;;32.11;33.87
73600;BME280;61877;48.246;9.220;2022-10-16T12:27:24;94361.28;;;32.68;31.96
73600;BME280;61877;48.246;9.220;2022-10-16T12:29:55;94359.72;;;32.43;31.85
73600;BME280;61877;48.246;9.220;2022-10-16T12:32:28;94362.53;;;33.14;31.43
73600;BME280;61877;48.246;9.220;2022-10-16T12:34:54;94361.88;;;33.72;30.22
73600;BME280;61877;48.246;9.220;2022-10-16T12:37:23;94364.28;;;33.64;30.95
73600;BME280;61877;48.246;9.220;2022-10-16T12:39:51;94368.22;;;33.72;29.21
73600;BME280;61877;48.246;9.220;2022-10-16T12:42:24;94367.84;;;34.09;29.67
73600;BME280;61877;48.246;9.220;2022-10-16T12:44:56;94369.53;;;32.53;30.61
73600;BME280;61877;48.246;9.220;2022-10-16T12:47:23;94366.25;;;30.81;33.42
73600;BME280;61877;48.246;9.220;2022-10-16T12:49:50;94369.53;;;30.31;32.81
73600;BME280;61877;48.246;9.220;2022-10-16T12:52:27;94362.78;;;30.41;33.51
73600;BME280;61877;48.246;9.220;2022-10-16T12:54:57;94368.16;;;29.74;35.06
73600;BME280;61877;48.246;9.220;2022-10-16T12:57:34;94366.53;;;30.65;34.56
73600;BME280;61877;48.246;9.220;2022-10-16T13:00:10;94368.28;;;31.53;31.64
73600;BME280;61877;48.246;9.220;2022-10-16T13:05:35;94377.53;;;32.84;29.91
73600;BME280;61877;48.246;9.220;2022-10-16T13:08:17;94364.34;;;30.60;32.03
73600;BME280;61877;48.246;9.220;2022-10-16T13:10:57;94370.03;;;30.17;33.85
73600;BME280;61877;48.246;9.220;2022-10-16T13:13:36;94381.53;;;29.76;34.99
73600;BME280;61877;48.246;9.220;2022-10-16T13:16:14;94384.50;;;28.57;37.10
73600;BME280;61877;48.246;9.220;2022-10-16T13:18:50;94380.84;;;28.73;37.36
73600;BME280;61877;48.246;9.220;2022-10-16T13:21:29;94377.91;;;28.30;37.42
73600;BME280;61877;48.246;9.220;2022-10-16T13:24:02;94382.81;;;30.14;34.84
73600;BME280;61877;48.246;9.220;2022-10-16T13:26:41;94385.06;;;29.55;34.58
73600;BME280;61877;48.246;9.220;2022-10-16T13:29:09;94389.88;;;29.85;35.23
73600;BME280;61877;48.246;9.220;2022-10-16T13:31:37;94385.69;;;29.80;37.29
73600;BME280;61877;48.246;9.220;2022-10-16T13:34:05;94388.78;;;29.61;35.66
73600;BME280;61877;48.246;9.220;2022-10-16T13:36:43;94383.44;;;29.88;36.91
73600;BME280;61877;48.246;9.220;2022-10-16T13:39:13;94388.66;;;29.21;36.46
73600;BME280;61877;48.246;9.220;2022-10-16T13:41:40;94384.63;;;28.54;37.79
73600;BME280;61877;48.246;9.220;2022-10-16T13:44:12;94384.56;;;27.66;41.09
73600;BME280;61877;48.246;9.220;2022-10-16T13:46:39;94382.81;;;27.02;40.18
73600;BME280;61877;48.246;9.220;2022-10-16T13:49:12;94385.84;;;28.40;39.48
73600;BME280;61877;48.246;9.220;2022-10-16T13:51:38;94384.88;;;28.93;36.82
73600;BME280;61877;48.246;9.220;2022-10-16T13:54:03;94387.63;;;28.22;37.46
73600;BME280;61877;48.246;9.220;2022-10-16T13:56:31;94387.31;;;27.53;38.38
73600;BME280;61877;48.246;9.220;2022-10-16T13:59:03;94386.00;;;27.01;40.00
73600;BME280;61877;48.246;9.220;2022-10-16T14:01:32;94390.28;;;28.50;38.36
73600;BME280;61877;48.246;9.220;2022-10-16T14:04:02;94384.00;;;30.04;34.52
73600;BME280;61877;48.246;9.220;2022-10-16T14:06:29;94382.03;;;30.14;32.28
73600;BME280;61877;48.246;9.220;2022-10-16T14:08:59;94375.84;;;30.50;30.37
73600;BME280;61877;48.246;9.220;2022-10-16T14:11:26;94378.97;;;30.70;29.93
73600;BME280;61877;48.246;9.220;2022-10-16T14:13:53;94377.59;;;30.65;30.01
73600;BME280;61877;48.246;9.220;2022-10-16T14:16:22;94385.47;;;30.76;29.48
73600;BME280;61877;48.246;9.220;2022-10-16T14:18:56;94384.53;;;30.70;31.57
73600;BME280;61877;48.246;9.220;2022-10-16T14:21:22;94378.91;;;30.91;33.06
73600;BME280;61877;48.246;9.220;2022-10-16T14:23:47;94378.44;;;30.84;31.84
73600;BME280;61877;48.246;9.220;2022-10-16T14:26:17;94380.41;;;30.74;31.68
73600;BME280;61877;48.246;9.220;2022-10-16T14:28:45;94386.19;;;30.49;32.33
73600;BME280;61877;48.246;9.220;2022-10-16T14:31:27;94385.44;;;32.11;29.65
73600;BME280;61877;48.246;9.220;2022-10-16T14:33:53;94383.00;;;33.02;28.87
73600;BME280;61877;48.246;9.220;2022-10-16T14:36:19;94377.84;;;32.21;29.21
73600;BME280;61877;48.246;9.220;2022-10-16T14:38:57;94380.75;;;30.85;31.69